KGNV/GNV METAR and TAF weather

Enter ICAO airport designator
Station Type Date Time Source
KGNV METAR 2020/06/05 10:53 UTC NOAA

KGNV 051053Z 00000KT 10SM SCT085 BKN100 22/22 A3004 RMK AO2 SLP171 T02220222


Station Type Date Time Source
KGNV Decoded METAR 2020/06/05 10:53 UTC NOAA

GAINESVILLE REGIONAL AIRPORT , FL, United States (KGNV) 29-42N 082-17W 45M
Jun 05, 2020 - 06:53 AM EDT / 2020.06.05 1053 UTC
Wind: Calm:0
Visibility: 10 mile(s):0
Sky conditions: mostly cloudy
Temperature: 72.0 F (22.2 C)
Dew Point: 72.0 F (22.2 C)
Relative Humidity: 100%
Pressure (altimeter): 30.04 in. Hg (1017 hPa)
ob: KGNV 051053Z 00000KT 10SM SCT085 BKN100 22/22 A3004 RMK AO2 SLP171 T02220222
cycle: 11

Station Type Date Time Source
KGNV TAF 2020/06/05 10:51 UTC NOAA

TAF
AMD KGNV 050949Z 0510/0606 19005KT P6SM VCSH BKN025 OVC050
FM051100 24005KT 6SM -SHRA SCT015 OVC025
FM051600 22007KT P6SM VCSH SCT025 OVC045

Example: see airport list